Time;durP1;ratioP1;P1;durP2;ratioP2;P2;SDS_P1;SDS_P2;PMS_P1;PMS_P2;Temp;Humidity;BMP_temperature;BMP_pressure;BME280_temperature;BME280_humidity;BME280_pressure;Samples;Min_cycle;Max_cycle;Signal;HPM_P1;HPM_P2
2023/04/10 00:07:20;;;;;;;21.17;19.10;;;5.60;99.90;;;;;;2612910;54;20387;-75
2023/04/10 00:13:07;;;;;;;21.33;19.03;;;5.60;99.90;;;;;;2613457;54;20391;-77
2023/04/10 00:18:55;;;;;;;23.80;20.70;;;5.60;99.90;;;;;;2612434;54;20150;-76
2023/04/10 00:24:42;;;;;;;21.47;19.50;;;5.60;99.90;;;;;;2613201;54;20243;-76
2023/04/10 00:30:30;;;;;;;23.17;20.87;;;5.70;99.90;;;;;;2613247;54;20640;-74
2023/04/10 00:36:19;;;;;;;23.20;20.73;;;5.70;99.90;;;;;;2613003;54;20150;-75
2023/04/10 00:42:08;;;;;;;22.83;20.53;;;5.80;99.90;;;;;;2613852;54;20916;-74
2023/04/10 00:47:56;;;;;;;23.60;21.10;;;5.80;99.90;;;;;;2612848;54;20920;-75
2023/04/10 00:53:45;;;;;;;24.30;21.17;;;6.00;99.90;;;;;;2613392;54;20949;-75
2023/04/10 00:59:33;;;;;;;23.87;21.37;;;5.90;99.90;;;;;;2613320;46;20463;-76
2023/04/10 01:02:47;;;;;;;25.67;23.30;;;6.10;99.90;;;;;;2613174;54;20419;-71
2023/04/10 01:05:13;;;;;;;26.67;23.87;;;6.50;99.90;;;;;;2612914;54;20431;-70
2023/04/10 01:11:06;;;;;;;24.60;22.27;;;6.40;99.90;;;;;;2614757;54;20383;-70
2023/04/10 01:29:29;;;;;;;23.90;21.80;;;6.70;99.90;;;;;;2612698;54;20366;-70
2023/04/10 01:35:17;;;;;;;24.67;22.30;;;7.20;99.90;;;;;;2614586;54;20395;-74
2023/04/10 01:41:07;;;;;;;23.03;20.87;;;7.50;99.90;;;;;;2613599;54;20429;-74
2023/04/10 01:46:56;;;;;;;22.57;20.40;;;8.00;99.90;;;;;;2614314;54;20587;-74
2023/04/10 01:52:46;;;;;;;23.47;21.37;;;8.00;99.90;;;;;;2613969;54;21106;-75
2023/04/10 01:58:34;;;;;;;23.83;21.60;;;7.60;99.90;;;;;;2613526;54;20387;-74
2023/04/10 02:07:53;;;;;;;22.77;20.77;;;7.60;99.90;;;;;;2611488;54;20450;-74
2023/04/10 02:13:41;;;;;;;27.10;22.33;;;7.90;99.60;;;;;;2610838;54;20512;-71
2023/04/10 02:19:32;;;;;;;23.47;21.20;;;7.80;97.80;;;;;;2612307;39;20792;-70
2023/04/10 02:25:19;;;;;;;22.00;20.20;;;7.90;95.30;;;;;;2612397;54;20460;-71
2023/04/10 02:31:09;;;;;;;20.77;18.93;;;8.00;94.20;;;;;;2611325;54;20130;-71
2023/04/10 02:36:56;;;;;;;23.30;21.07;;;7.90;94.10;;;;;;2611943;54;20414;-71
2023/04/10 02:42:45;;;;;;;22.43;20.43;;;7.40;99.90;;;;;;2609427;54;20134;-70
2023/04/10 02:48:32;;;;;;;22.00;20.00;;;7.60;97.90;;;;;;2611013;39;20882;-70
2023/04/10 02:54:21;;;;;;;20.57;18.80;;;7.50;97.00;;;;;;2609517;54;20239;-70
2023/04/10 03:00:09;;;;;;;21.33;19.33;;;7.70;93.90;;;;;;2613131;54;20407;-74
2023/04/10 03:03:14;;;;;;;20.47;18.77;;;7.80;93.50;;;;;;2613543;47;20404;-74
2023/04/10 03:05:40;;;;;;;22.17;20.27;;;7.90;93.10;;;;;;2614427;54;20837;-74
2023/04/10 03:11:28;;;;;;;22.00;19.93;;;7.60;94.10;;;;;;2610814;46;20150;-74
2023/04/10 03:17:16;;;;;;;21.50;19.83;;;7.20;99.60;;;;;;2611546;54;20247;-74
2023/04/10 03:23:04;;;;;;;19.83;18.33;;;6.80;99.90;;;;;;2611717;54;20207;-74
2023/04/10 03:28:52;;;;;;;21.40;19.63;;;6.70;99.90;;;;;;2610707;54;20419;-74
2023/04/10 03:34:40;;;;;;;19.93;18.13;;;6.80;99.90;;;;;;2611256;54;20138;-74
2023/04/10 03:40:28;;;;;;;20.63;18.73;;;6.70;99.90;;;;;;2611791;54;20150;-74
2023/04/10 03:46:16;;;;;;;22.00;18.90;;;6.80;99.90;;;;;;2609948;39;20226;-74
2023/04/10 03:52:03;;;;;;;19.77;18.10;;;6.90;99.90;;;;;;2612388;54;20180;-74
2023/04/10 03:57:51;;;;;;;18.47;16.93;;;6.60;99.90;;;;;;2612066;54;20195;-74
2023/04/10 04:07:48;;;;;;;20.60;18.90;;;6.60;99.90;;;;;;2610745;54;21356;-74
2023/04/10 04:13:36;;;;;;;19.50;17.93;;;6.60;99.90;;;;;;2610627;54;20379;-74
2023/04/10 04:19:24;;;;;;;19.70;17.70;;;6.70;99.90;;;;;;2611941;54;20156;-74
2023/04/10 04:25:11;;;;;;;20.47;17.90;;;6.70;99.90;;;;;;2611175;39;20772;-75
2023/04/10 04:31:00;;;;;;;19.60;17.90;;;6.70;99.90;;;;;;2611275;54;20126;-74
2023/04/10 04:36:48;;;;;;;19.33;17.57;;;6.80;99.90;;;;;;2610490;54;20383;-74
2023/04/10 04:42:36;;;;;;;19.93;18.03;;;6.90;99.90;;;;;;2610526;54;20158;-74
2023/04/10 04:48:24;;;;;;;17.70;16.30;;;6.50;99.90;;;;;;2611258;54;20383;-74
2023/04/10 04:54:11;;;;;;;17.00;15.57;;;6.80;99.90;;;;;;2610138;54;20138;-74
2023/04/10 04:59:59;;;;;;;19.17;17.57;;;6.80;99.90;;;;;;2611314;54;20186;-75
2023/04/10 05:03:21;;;;;;;20.03;18.27;;;7.00;99.90;;;;;;2612949;47;20531;-74
2023/04/10 05:05:46;;;;;;;19.50;17.90;;;7.40;99.40;;;;;;2612730;54;20154;-74
2023/04/10 05:11:34;;;;;;;19.13;17.63;;;7.30;96.30;;;;;;2611330;54;20214;-74
2023/04/10 05:17:22;;;;;;;18.60;17.10;;;7.30;97.10;;;;;;2613101;54;20134;-73
2023/04/10 05:23:10;;;;;;;19.57;17.77;;;7.20;95.90;;;;;;2612244;54;20122;-73
2023/04/10 05:28:57;;;;;;;19.87;18.27;;;7.10;99.30;;;;;;2612168;54;20134;-74
2023/04/10 05:34:45;;;;;;;19.70;18.10;;;7.10;99.90;;;;;;2611420;54;20150;-74
2023/04/10 05:40:36;;;;;;;17.87;16.47;;;7.00;99.90;;;;;;2610692;39;20708;-79
2023/04/10 05:46:24;;;;;;;17.20;15.73;;;7.30;99.90;;;;;;2612394;54;20492;-73
2023/04/10 05:52:11;;;;;;;18.30;16.80;;;8.10;93.70;;;;;;2613853;54;20154;-74
2023/04/10 05:57:59;;;;;;;18.17;16.83;;;8.80;75.80;;;;;;2613647;54;20122;-73
2023/04/10 06:14:12;;;;;;;16.93;15.77;;;11.20;31.70;;;;;;2612382;54;20437;-74
2023/04/10 06:20:03;;;;;;;17.73;16.53;;;11.90;24.90;;;;;;2608379;54;20122;-74
2023/04/10 06:25:50;;;;;;;17.57;16.37;;;12.40;15.70;;;;;;2612517;54;20465;-74
2023/04/10 06:31:38;;;;;;;18.77;17.53;;;12.00;11.20;;;;;;2611435;54;20159;-74
2023/04/10 06:37:30;;;;;;;17.90;16.80;;;12.20;3.20;;;;;;2610860;39;20600;-74
2023/04/10 06:43:17;;;;;;;18.30;17.00;;;12.30;1.00;;;;;;2610987;54;20383;-74
2023/04/10 06:49:05;;;;;;;16.70;15.80;;;12.60;1.00;;;;;;2606636;54;20649;-74
2023/04/10 06:54:53;;;;;;;17.10;16.10;;;13.00;1.00;;;;;;2607063;54;20603;-75
2023/04/10 07:00:41;;;;;;;16.97;15.90;;;13.50;1.00;;;;;;2609237;39;20638;-74
2023/04/10 07:03:18;;;;;;;15.97;15.07;;;13.90;1.00;;;;;;2609271;54;20416;-74
2023/04/10 07:05:43;;;;;;;19.70;15.93;;;13.80;1.00;;;;;;2607806;31;20792;-74
2023/04/10 07:11:32;;;;;;;16.83;15.83;;;14.20;1.00;;;;;;2610588;54;20149;-79
2023/04/10 07:17:21;;;;;;;17.43;16.13;;;14.30;1.00;;;;;;2607960;54;20556;-74
2023/04/10 07:23:08;;;;;;;16.83;15.83;;;14.10;1.00;;;;;;2609709;54;20390;-73
2023/04/10 07:28:56;;;;;;;19.63;18.43;;;13.90;1.00;;;;;;2609790;54;20157;-74
2023/04/10 07:34:44;;;;;;;17.77;16.77;;;13.90;1.00;;;;;;2609896;54;20641;-74
2023/04/10 07:40:31;;;;;;;17.43;16.43;;;14.00;1.00;;;;;;2611080;39;20530;-72
2023/04/10 07:46:19;;;;;;;17.60;16.50;;;14.70;1.00;;;;;;2608420;54;20170;-74
2023/04/10 07:52:07;;;;;;;16.30;15.40;;;14.50;1.00;;;;;;2608705;54;20138;-74
2023/04/10 07:57:55;;;;;;;16.13;15.23;;;14.20;1.00;;;;;;2607687;54;20131;-73
2023/04/10 08:07:49;;;;;;;17.37;16.27;;;14.40;1.00;;;;;;2608004;54;20419;-74
2023/04/10 08:13:36;;;;;;;17.07;16.17;;;14.90;1.00;;;;;;2611275;54;20407;-74
2023/04/10 08:19:24;;;;;;;17.27;16.27;;;15.40;1.00;;;;;;2609401;54;20133;-74
2023/04/10 08:25:12;;;;;;;16.20;15.30;;;15.70;1.00;;;;;;2609649;54;20717;-74
2023/04/10 08:31:00;;;;;;;16.10;15.20;;;16.80;1.00;;;;;;2607165;54;20255;-75
2023/04/10 08:36:48;;;;;;;16.00;15.10;;;16.50;1.00;;;;;;2609240;54;20447;-74
2023/04/10 08:42:36;;;;;;;15.83;15.03;;;16.20;1.00;;;;;;2609449;54;20151;-74
2023/04/10 08:48:31;;;;;;;13.90;13.20;;;16.30;1.00;;;;;;2611751;54;20154;-75
2023/04/10 09:00:48;;;;;;;15.43;14.67;;;15.80;1.00;;;;;;2610039;54;20371;-75
2023/04/10 09:03:16;;;;;;;14.20;13.50;;;16.40;1.00;;;;;;2609927;39;20897;-74
2023/04/10 09:05:42;;;;;;;14.00;13.30;;;15.90;1.00;;;;;;2608121;54;20162;-74
2023/04/10 09:11:51;;;;;;;15.50;14.17;;;16.10;1.00;;;;;;2611609;54;20407;-74
2023/04/10 09:17:55;;;;;;;14.30;13.60;;;15.80;1.00;;;;;;2610677;54;20391;-74
2023/04/10 09:23:44;;;;;;;13.80;13.00;;;16.10;1.00;;;;;;2613196;54;20391;-75
2023/04/10 09:29:43;;;;;;;13.77;13.07;;;16.10;1.00;;;;;;2612904;54;20468;-74
2023/04/10 09:35:36;;;;;;;14.60;13.70;;;16.30;1.00;;;;;;2611651;54;20426;-75
2023/04/10 09:41:24;;;;;;;14.33;13.63;;;17.00;1.00;;;;;;2613286;54;20399;-75
2023/04/10 09:47:21;;;;;;;13.70;13.00;;;17.00;1.00;;;;;;2613660;54;20415;-74
2023/04/10 09:53:15;;;;;;;14.60;13.80;;;17.30;1.00;;;;;;2613194;54;20395;-75
2023/04/10 09:59:05;;;;;;;14.40;13.57;;;17.10;1.00;;;;;;2612706;54;20419;-75
2023/04/10 10:08:21;;;;;;;15.10;14.40;;;17.70;1.00;;;;;;2613084;54;20447;-75
2023/04/10 10:14:15;;;;;;;15.17;14.37;;;17.10;1.00;;;;;;2612843;54;20394;-74
2023/04/10 10:20:07;;;;;;;14.00;13.30;;;17.10;1.00;;;;;;2613187;54;20391;-75
2023/04/10 10:25:57;;;;;;;15.07;14.27;;;17.20;1.00;;;;;;2612748;54;20379;-76
2023/04/10 10:31:46;;;;;;;14.17;13.47;;;17.00;1.00;;;;;;2613663;39;20776;-75
2023/04/10 10:37:35;;;;;;;14.87;14.17;;;17.60;1.00;;;;;;2613205;54;20411;-74
2023/04/10 10:50:01;;;;;;;14.43;13.73;;;18.20;1.00;;;;;;2611187;39;21512;-75
2023/04/10 10:55:49;;;;;;;14.20;13.40;;;18.10;1.00;;;;;;2611013;54;20379;-77
2023/04/10 11:01:36;;;;;;;14.40;13.50;;;17.90;1.00;;;;;;2609726;39;21034;-75
2023/04/10 11:14:09;;;;;;;14.40;13.60;;;18.00;1.00;;;;;;2610275;54;20438;-75
2023/04/10 11:20:00;;;;;;;13.73;13.10;;;17.90;1.00;;;;;;2610178;54;20145;-75
2023/04/10 11:25:53;;;;;;;14.07;13.37;;;17.80;1.00;;;;;;2609062;54;20423;-76
2023/04/10 11:31:47;;;;;;;13.90;13.10;;;17.80;1.00;;;;;;2610401;54;20523;-76
2023/04/10 11:37:35;;;;;;;13.60;12.90;;;17.90;1.00;;;;;;2610707;54;20403;-75
2023/04/10 11:43:23;;;;;;;14.00;13.30;;;18.50;1.00;;;;;;2609704;54;20426;-76
2023/04/10 11:49:12;;;;;;;14.20;13.40;;;18.60;1.00;;;;;;2609080;54;20167;-75
2023/04/10 11:55:00;;;;;;;14.30;13.60;;;18.60;1.00;;;;;;2609070;54;20387;-74
2023/04/10 12:03:45;;;;;;;14.10;13.50;;;19.30;1.00;;;;;;2613580;39;20827;-74
2023/04/10 12:06:13;;;;;;;14.20;13.50;;;20.10;1.00;;;;;;2612640;54;20450;-75
2023/04/10 12:12:03;;;;;;;14.40;13.60;;;19.00;1.00;;;;;;2613136;54;20395;-75
2023/04/10 12:17:50;;;;;;;13.73;13.07;;;19.80;1.00;;;;;;2611375;54;20395;-75
2023/04/10 12:23:39;;;;;;;13.73;13.03;;;19.10;1.00;;;;;;2612935;54;20151;-74
2023/04/10 12:29:26;;;;;;;13.67;13.03;;;18.90;1.00;;;;;;2612241;54;20422;-73
2023/04/10 12:35:14;;;;;;;13.93;13.33;;;18.40;1.00;;;;;;2610911;54;20126;-73
2023/04/10 12:41:03;;;;;;;13.57;12.90;;;19.00;1.00;;;;;;2613091;54;20181;-72
2023/04/10 12:53:25;;;;;;;14.23;13.50;;;19.40;1.00;;;;;;2610813;54;20382;-73
2023/04/10 12:59:12;;;;;;;13.40;12.73;;;19.20;1.00;;;;;;2610696;54;20398;-75
2023/04/10 13:08:22;;;;;;;14.47;13.87;;;18.40;1.00;;;;;;2610680;54;20423;-76
2023/04/10 13:14:10;;;;;;;14.10;13.50;;;18.50;1.00;;;;;;2609998;54;20155;-77
2023/04/10 13:19:58;;;;;;;14.10;13.40;;;18.10;1.00;;;;;;2609766;54;20134;-75
2023/04/10 13:25:46;;;;;;;13.73;13.10;;;18.50;1.00;;;;;;2609241;54;20131;-76
2023/04/10 13:31:34;;;;;;;13.90;13.20;;;18.40;1.00;;;;;;2608706;54;20434;-76
2023/04/10 13:37:22;;;;;;;13.60;12.90;;;18.60;1.00;;;;;;2612733;54;20129;-75
2023/04/10 13:43:09;;;;;;;13.97;13.27;;;18.60;1.00;;;;;;2612857;54;21597;-75
2023/04/10 13:48:57;;;;;;;15.10;14.30;;;18.20;1.00;;;;;;2612383;54;20657;-75
2023/04/10 13:54:45;;;;;;;12.73;12.10;;;18.50;1.00;;;;;;2607697;54;20126;-76
2023/04/10 14:00:33;;;;;;;12.40;11.77;;;18.10;1.00;;;;;;2610757;54;20158;-75
2023/04/10 14:03:47;;;;;;;12.83;12.13;;;18.10;1.00;;;;;;2608922;54;20416;-75
2023/04/10 14:06:13;;;;;;;13.73;13.03;;;18.30;1.00;;;;;;2608875;47;20246;-75
2023/04/10 14:12:01;;;;;;;14.00;13.30;;;17.90;1.00;;;;;;2609765;54;21251;-74
2023/04/10 14:15:04;;;;;;;13.53;12.93;;;18.00;1.00;;;;;;2609772;54;20416;-74
2023/04/10 14:17:30;;;;;;;17.73;16.33;;;17.80;1.00;;;;;;2610513;54;20420;-75
2023/04/10 14:23:18;;;;;;;17.63;16.43;;;17.90;1.00;;;;;;2609312;46;20178;-75
2023/04/10 14:29:07;;;;;;;15.30;14.50;;;17.80;1.00;;;;;;2607540;54;20138;-75
2023/04/10 14:34:55;;;;;;;15.47;14.67;;;17.80;1.00;;;;;;2608889;54;20399;-75
2023/04/10 14:40:44;;;;;;;15.33;14.47;;;17.60;1.00;;;;;;2611567;54;20133;-76
2023/04/10 14:46:32;;;;;;;14.47;13.77;;;17.70;1.00;;;;;;2613254;54;25249;-74
2023/04/10 14:52:20;;;;;;;14.50;13.80;;;17.60;1.00;;;;;;2610025;54;20727;-75
2023/04/10 14:58:08;;;;;;;14.27;13.60;;;17.60;1.00;;;;;;2608617;54;20134;-74
2023/04/10 15:10:41;;;;;;;22.03;20.33;;;17.40;1.00;;;;;;2609980;54;21040;-74
2023/04/10 15:16:29;;;;;;;16.93;16.03;;;17.30;1.00;;;;;;2608826;54;20435;-74
2023/04/10 15:22:17;;;;;;;14.37;13.77;;;17.30;1.00;;;;;;2609311;54;21085;-75
2023/04/10 15:28:06;;;;;;;14.90;14.10;;;17.30;1.00;;;;;;2609725;54;20150;-75
2023/04/10 15:33:54;;;;;;;14.87;14.13;;;17.30;1.00;;;;;;2610487;54;20363;-74
2023/04/10 15:39:42;;;;;;;15.30;14.20;;;17.40;1.00;;;;;;2611074;54;20174;-75
2023/04/10 15:45:29;;;;;;;15.27;14.50;;;17.70;1.00;;;;;;2613858;54;20146;-74
2023/04/10 15:51:17;;;;;;;14.80;13.73;;;17.60;1.00;;;;;;2612880;54;20147;-74
2023/04/10 15:57:05;;;;;;;14.20;13.50;;;17.60;1.00;;;;;;2612776;54;20142;-75
2023/04/10 16:02:52;;;;;;;17.23;16.13;;;17.70;1.00;;;;;;2610225;54;20129;-74
2023/04/10 16:08:40;;;;;;;14.97;14.17;;;17.90;1.00;;;;;;2612622;54;20198;-75
2023/04/10 16:12:05;;;;;;;14.00;13.30;;;17.80;1.00;;;;;;2612031;54;20907;-75
2023/04/10 16:17:52;;;;;;;14.80;14.10;;;17.60;1.00;;;;;;2613461;54;20424;-74
2023/04/10 16:23:40;;;;;;;14.10;13.50;;;17.50;1.00;;;;;;2612124;39;21168;-73
2023/04/10 16:29:28;;;;;;;13.93;13.33;;;17.50;1.00;;;;;;2612371;54;20170;-73
2023/04/10 16:35:17;;;;;;;13.93;13.30;;;17.30;1.00;;;;;;2611960;54;20343;-74
2023/04/10 16:41:05;;;;;;;15.00;14.30;;;17.10;1.00;;;;;;2612195;47;20883;-74
2023/04/10 16:46:52;;;;;;;16.23;15.33;;;17.00;1.00;;;;;;2612773;54;20166;-73
2023/04/10 16:52:40;;;;;;;14.33;13.73;;;16.70;1.00;;;;;;2612301;54;20138;-73
2023/04/10 16:58:28;;;;;;;14.77;13.97;;;16.40;1.00;;;;;;2610855;54;20150;-73
2023/04/10 17:04:17;;;;;;;14.33;13.43;;;15.50;1.00;;;;;;2610040;54;20134;-74
2023/04/10 17:07:33;;;;;;;14.77;13.53;;;15.10;12.10;;;;;;2611538;54;20978;-74
2023/04/10 17:09:58;;;;;;;13.67;12.47;;;14.60;21.20;;;;;;2610863;54;20408;-72
2023/04/10 17:15:46;;;;;;;9.70;9.00;;;14.50;29.50;;;;;;2610829;54;20162;-74
2023/04/10 17:21:34;;;;;;;9.23;8.13;;;14.30;41.00;;;;;;2612719;54;20214;-73
2023/04/10 17:27:21;;;;;;;9.20;8.20;;;14.20;45.60;;;;;;2614254;54;20135;-73
2023/04/10 17:33:09;;;;;;;7.70;7.00;;;14.00;52.40;;;;;;2613908;54;20126;-75
2023/04/10 17:38:57;;;;;;;7.97;7.03;;;13.80;61.80;;;;;;2612207;54;20162;-74
2023/04/10 17:44:45;;;;;;;8.17;7.60;;;13.90;59.50;;;;;;2611876;54;20383;-75
2023/04/10 17:50:32;;;;;;;9.13;8.33;;;14.10;47.40;;;;;;2611578;54;20158;-74
2023/04/10 17:56:20;;;;;;;9.70;7.53;;;14.00;50.00;;;;;;2611236;54;20169;-74
2023/04/10 18:02:08;;;;;;;6.90;6.37;;;13.90;57.70;;;;;;2610303;54;20130;-75
2023/04/10 18:12:05;;;;;;;5.87;4.93;;;13.60;69.90;;;;;;2611754;54;20391;-75
2023/04/10 18:17:52;;;;;;;7.23;5.40;;;13.60;72.70;;;;;;2613295;54;20395;-75
2023/04/10 18:23:41;;;;;;;6.80;6.13;;;13.10;90.70;;;;;;2611900;54;20391;-75
2023/04/10 18:29:30;;;;;;;7.43;6.73;;;12.90;99.90;;;;;;2610232;54;20153;-75
2023/04/10 18:35:17;;;;;;;5.93;5.43;;;12.70;99.90;;;;;;2610620;54;20569;-75
2023/04/10 18:41:05;;;;;;;12.23;7.03;;;12.50;99.90;;;;;;2612440;54;20138;-75
2023/04/10 18:46:53;;;;;;;7.47;6.77;;;12.40;99.90;;;;;;2615008;54;20166;-76
2023/04/10 18:52:41;;;;;;;7.20;6.50;;;12.10;99.90;;;;;;2612180;54;20657;-75
2023/04/10 18:58:31;;;;;;;7.57;6.80;;;12.00;99.90;;;;;;2612957;54;20138;-76
2023/04/10 19:04:19;;;;;;;6.63;6.03;;;11.80;99.90;;;;;;2613048;54;20419;-75
2023/04/10 19:07:33;;;;;;;7.57;6.87;;;11.80;99.90;;;;;;2611411;54;20388;-75
2023/04/10 19:09:58;;;;;;;8.13;7.00;;;11.70;99.90;;;;;;2611695;54;20151;-74
2023/04/10 19:15:47;;;;;;;7.70;6.97;;;11.60;99.90;;;;;;2612317;39;20560;-77
2023/04/10 19:21:34;;;;;;;7.90;7.10;;;11.60;99.90;;;;;;2613952;54;20429;-75
2023/04/10 19:27:22;;;;;;;8.20;7.50;;;11.50;99.90;;;;;;2611999;54;20134;-76
2023/04/10 19:33:09;;;;;;;9.47;6.57;;;11.50;99.90;;;;;;2614033;54;20142;-76
2023/04/10 19:38:57;;;;;;;7.77;5.70;;;11.70;99.90;;;;;;2612035;54;20271;-74
2023/04/10 19:44:44;;;;;;;5.90;5.30;;;11.10;99.90;;;;;;2611866;54;20667;-75
2023/04/10 19:50:32;;;;;;;3.67;2.97;;;10.80;99.90;;;;;;2612588;54;20142;-74
2023/04/10 19:56:20;;;;;;;4.13;3.53;;;10.60;99.90;;;;;;2613208;54;20138;-75
2023/04/10 20:02:09;;;;;;;5.00;3.30;;;10.50;99.90;;;;;;2610232;54;20423;-74
2023/04/10 20:12:05;;;;;;;6.80;4.03;;;10.40;99.90;;;;;;2614221;54;20403;-75
2023/04/10 20:15:08;;;;;;;7.23;4.20;;;10.40;99.90;;;;;;2613557;54;20442;-75
2023/04/10 20:17:34;;;;;;;6.37;4.60;;;10.40;99.90;;;;;;2614197;39;20765;-75
2023/04/10 20:23:22;;;;;;;4.50;4.10;;;10.30;99.90;;;;;;2613884;39;20458;-74
2023/04/10 20:29:10;;;;;;;13.50;9.57;;;10.30;99.90;;;;;;2614103;46;20157;-75
2023/04/10 20:34:58;;;;;;;6.67;5.97;;;10.30;99.90;;;;;;2614033;54;21266;-74
2023/04/10 20:40:46;;;;;;;4.27;3.70;;;10.20;99.90;;;;;;2613704;54;20174;-73
2023/04/10 20:46:34;;;;;;;6.23;4.40;;;10.20;99.90;;;;;;2610911;54;20173;-75
2023/04/10 20:52:22;;;;;;;5.50;4.50;;;10.10;99.90;;;;;;2614380;54;20122;-75
2023/04/10 20:58:09;;;;;;;5.73;4.43;;;10.10;99.90;;;;;;2614793;46;20701;-75
2023/04/10 21:03:57;;;;;;;6.13;4.10;;;10.10;99.90;;;;;;2614496;54;20158;-75
2023/04/10 21:09:45;;;;;;;5.30;3.40;;;10.00;99.90;;;;;;2613129;54;20189;-75
2023/04/10 21:15:33;;;;;;;3.57;2.73;;;9.90;99.90;;;;;;2611362;54;20414;-75
2023/04/10 21:21:21;;;;;;;3.90;2.70;;;9.90;99.90;;;;;;2612624;54;20158;-74
2023/04/10 21:27:08;;;;;;;3.40;2.80;;;10.00;99.90;;;;;;2612310;54;20263;-75
2023/04/10 21:32:56;;;;;;;3.23;2.27;;;9.90;99.90;;;;;;2612447;54;20161;-75
2023/04/10 21:38:44;;;;;;;3.27;2.63;;;9.90;99.90;;;;;;2612476;54;20668;-75
2023/04/10 21:44:32;;;;;;;3.00;1.97;;;9.80;99.90;;;;;;2612991;54;20122;-76
2023/04/10 21:50:19;;;;;;;3.80;2.53;;;9.70;99.90;;;;;;2614658;54;20138;-76
2023/04/10 21:56:07;;;;;;;3.70;2.47;;;9.60;99.90;;;;;;2612851;54;21680;-76
2023/04/10 22:01:55;;;;;;;3.53;2.50;;;9.60;99.90;;;;;;2611544;54;20131;-75
2023/04/10 22:12:04;;;;;;;7.13;2.13;;;9.50;99.90;;;;;;2611892;54;20430;-77
2023/04/10 22:17:52;;;;;;;7.23;2.40;;;9.50;99.90;;;;;;2611235;54;20475;-77
2023/04/10 22:23:39;;;;;;;3.37;2.20;;;9.50;99.90;;;;;;2613389;54;20121;-76
2023/04/10 22:29:27;;;;;;;3.63;2.73;;;9.50;99.90;;;;;;2613716;54;20151;-77
2023/04/10 22:35:15;;;;;;;3.00;2.30;;;9.50;99.90;;;;;;2610896;54;20147;-77
2023/04/10 22:41:05;;;;;;;5.73;2.70;;;9.60;99.90;;;;;;2612230;54;20122;-77
2023/04/10 22:46:53;;;;;;;2.97;2.67;;;9.50;99.90;;;;;;2612847;54;20395;-75
2023/04/10 22:52:40;;;;;;;3.43;2.90;;;9.30;99.90;;;;;;2612943;54;20126;-76
2023/04/10 22:58:28;;;;;;;2.93;2.50;;;9.10;99.90;;;;;;2613029;54;20114;-76
2023/04/10 23:04:16;;;;;;;3.30;2.37;;;9.10;99.90;;;;;;2612150;54;20178;-75
2023/04/10 23:10:16;;;;;;;6.50;2.80;;;9.20;99.90;;;;;;2610770;47;20158;-75
2023/04/10 23:16:04;;;;;;;3.00;2.60;;;9.30;99.90;;;;;;2611712;54;20134;-76
2023/04/10 23:21:52;;;;;;;4.60;3.30;;;9.50;99.90;;;;;;2610331;39;20588;-76
2023/04/10 23:27:39;;;;;;;3.47;2.57;;;9.50;99.90;;;;;;2609849;54;20479;-76
2023/04/10 23:33:26;;;;;;;3.33;3.00;;;9.50;99.90;;;;;;2610859;54;20151;-75
2023/04/10 23:39:13;;;;;;;4.83;3.53;;;9.60;99.90;;;;;;2610416;54;20126;-76
2023/04/10 23:45:00;;;;;;;4.23;3.27;;;9.80;99.90;;;;;;2612252;39;20634;-74
2023/04/10 23:50:48;;;;;;;5.23;2.90;;;9.70;99.90;;;;;;2613023;54;20130;-75
2023/04/10 23:56:36;;;;;;;4.50;3.00;;;9.70;99.90;;;;;;2612910;54;20259;-75
